sensor_id;sensor_type;location;lat;lon;timestamp;pressure;altitude;pressure_sealevel;temperature
49557;BMP280;35462;45.048;7.666;2023-05-10T00:04:42;98322.00;;;19.93
49557;BMP280;35462;45.048;7.666;2023-05-10T00:19:46;98308.03;;;19.89
49557;BMP280;35462;45.048;7.666;2023-05-10T00:34:50;98317.06;;;19.86
49557;BMP280;35462;45.048;7.666;2023-05-10T00:49:54;98300.69;;;19.84
49557;BMP280;35462;45.048;7.666;2023-05-10T01:04:59;98318.44;;;19.76
49557;BMP280;35462;45.048;7.666;2023-05-10T01:20:04;98308.47;;;19.57
49557;BMP280;35462;45.048;7.666;2023-05-10T01:50:22;98342.97;;;19.38
49557;BMP280;35462;45.048;7.666;2023-05-10T02:05:28;98336.47;;;19.25
49557;BMP280;35462;45.048;7.666;2023-05-10T02:20:33;98355.00;;;19.03
49557;BMP280;35462;45.048;7.666;2023-05-10T02:35:38;98363.09;;;19.08
49557;BMP280;35462;45.048;7.666;2023-05-10T02:50:44;98364.53;;;18.70
49557;BMP280;35462;45.048;7.666;2023-05-10T03:05:49;98371.06;;;18.83
49557;BMP280;35462;45.048;7.666;2023-05-10T03:20:57;98374.72;;;18.80
49557;BMP280;35462;45.048;7.666;2023-05-10T03:36:03;98389.53;;;18.61
49557;BMP280;35462;45.048;7.666;2023-05-10T03:51:07;98410.44;;;18.57
49557;BMP280;35462;45.048;7.666;2023-05-10T04:06:11;98419.16;;;18.38
49557;BMP280;35462;45.048;7.666;2023-05-10T04:21:15;98425.88;;;18.33
49557;BMP280;35462;45.048;7.666;2023-05-10T04:36:19;98442.84;;;18.39
49557;BMP280;35462;45.048;7.666;2023-05-10T04:51:24;98448.00;;;18.29
49557;BMP280;35462;45.048;7.666;2023-05-10T05:06:28;98470.56;;;18.22
49557;BMP280;35462;45.048;7.666;2023-05-10T05:21:32;98470.75;;;18.33
49557;BMP280;35462;45.048;7.666;2023-05-10T05:36:36;98488.44;;;18.16
49557;BMP280;35462;45.048;7.666;2023-05-10T05:51:43;98493.94;;;18.22
49557;BMP280;35462;45.048;7.666;2023-05-10T06:06:48;98511.50;;;18.37
49557;BMP280;35462;45.048;7.666;2023-05-10T06:21:52;98523.91;;;18.34
49557;BMP280;35462;45.048;7.666;2023-05-10T06:36:56;98544.44;;;18.37
49557;BMP280;35462;45.048;7.666;2023-05-10T06:52:00;98570.59;;;18.28
49557;BMP280;35462;45.048;7.666;2023-05-10T07:07:03;98586.44;;;18.17
49557;BMP280;35462;45.048;7.666;2023-05-10T07:22:07;98592.72;;;18.14
49557;BMP280;35462;45.048;7.666;2023-05-10T07:37:12;98582.19;;;18.11
49557;BMP280;35462;45.048;7.666;2023-05-10T07:52:16;98575.72;;;18.17
49557;BMP280;35462;45.048;7.666;2023-05-10T08:07:20;98571.72;;;18.36
49557;BMP280;35462;45.048;7.666;2023-05-10T08:22:24;98570.63;;;18.57
49557;BMP280;35462;45.048;7.666;2023-05-10T08:37:29;98561.50;;;18.78
49557;BMP280;35462;45.048;7.666;2023-05-10T08:52:37;98567.88;;;18.66
49557;BMP280;35462;45.048;7.666;2023-05-10T09:07:43;98565.19;;;18.66
49557;BMP280;35462;45.048;7.666;2023-05-10T09:22:48;98569.16;;;18.70
49557;BMP280;35462;45.048;7.666;2023-05-10T09:37:55;98559.00;;;18.89
49557;BMP280;35462;45.048;7.666;2023-05-10T09:53:01;98555.28;;;19.01
49557;BMP280;35462;45.048;7.666;2023-05-10T10:08:06;98542.44;;;19.39
49557;BMP280;35462;45.048;7.666;2023-05-10T10:23:10;98529.88;;;19.84
49557;BMP280;35462;45.048;7.666;2023-05-10T10:38:14;98519.13;;;19.84
49557;BMP280;35462;45.048;7.666;2023-05-10T10:53:19;98507.19;;;19.91
49557;BMP280;35462;45.048;7.666;2023-05-10T11:08:27;98489.06;;;20.31
49557;BMP280;35462;45.048;7.666;2023-05-10T11:38:41;98451.94;;;20.71
49557;BMP280;35462;45.048;7.666;2023-05-10T11:53:45;98437.72;;;20.35
49557;BMP280;35462;45.048;7.666;2023-05-10T12:08:49;98419.41;;;21.06
49557;BMP280;35462;45.048;7.666;2023-05-10T12:24:00;98415.59;;;20.87
49557;BMP280;35462;45.048;7.666;2023-05-10T12:39:04;98401.78;;;20.68
49557;BMP280;35462;45.048;7.666;2023-05-10T12:54:08;98388.00;;;21.03
49557;BMP280;35462;45.048;7.666;2023-05-10T13:09:13;98381.22;;;21.13
49557;BMP280;35462;45.048;7.666;2023-05-10T13:24:17;98357.41;;;21.00
49557;BMP280;35462;45.048;7.666;2023-05-10T13:39:21;98339.75;;;20.88
49557;BMP280;35462;45.048;7.666;2023-05-10T13:54:25;98319.19;;;20.96
49557;BMP280;35462;45.048;7.666;2023-05-10T14:09:32;98303.31;;;21.04
49557;BMP280;35462;45.048;7.666;2023-05-10T14:24:38;98286.22;;;21.17
49557;BMP280;35462;45.048;7.666;2023-05-10T14:39:41;98286.03;;;21.54
49557;BMP280;35462;45.048;7.666;2023-05-10T14:54:46;98300.19;;;21.16
49557;BMP280;35462;45.048;7.666;2023-05-10T15:09:51;98281.09;;;21.14
49557;BMP280;35462;45.048;7.666;2023-05-10T15:24:55;98281.09;;;21.25
49557;BMP280;35462;45.048;7.666;2023-05-10T15:40:00;98287.47;;;21.27
49557;BMP280;35462;45.048;7.666;2023-05-10T15:55:08;98292.09;;;21.16
49557;BMP280;35462;45.048;7.666;2023-05-10T16:10:15;98301.16;;;21.13
49557;BMP280;35462;45.048;7.666;2023-05-10T16:25:22;98312.59;;;20.92
49557;BMP280;35462;45.048;7.666;2023-05-10T16:40:26;98317.50;;;20.99
49557;BMP280;35462;45.048;7.666;2023-05-10T16:55:30;98334.16;;;21.03
49557;BMP280;35462;45.048;7.666;2023-05-10T17:10:38;98340.78;;;21.07
49557;BMP280;35462;45.048;7.666;2023-05-10T17:25:42;98324.31;;;20.89
49557;BMP280;35462;45.048;7.666;2023-05-10T17:40:47;98336.06;;;20.86
49557;BMP280;35462;45.048;7.666;2023-05-10T17:55:53;98339.22;;;20.84
49557;BMP280;35462;45.048;7.666;2023-05-10T18:11:00;98387.03;;;20.58
49557;BMP280;35462;45.048;7.666;2023-05-10T18:26:04;98406.19;;;20.35
49557;BMP280;35462;45.048;7.666;2023-05-10T18:41:08;98450.72;;;20.11
49557;BMP280;35462;45.048;7.666;2023-05-10T18:56:14;98453.13;;;19.83
49557;BMP280;35462;45.048;7.666;2023-05-10T19:11:19;98462.06;;;19.75
49557;BMP280;35462;45.048;7.666;2023-05-10T19:26:24;98455.66;;;19.67
49557;BMP280;35462;45.048;7.666;2023-05-10T19:41:28;98467.94;;;19.54
49557;BMP280;35462;45.048;7.666;2023-05-10T19:56:32;98506.94;;;19.49
49557;BMP280;35462;45.048;7.666;2023-05-10T20:11:36;98503.28;;;19.32
49557;BMP280;35462;45.048;7.666;2023-05-10T20:26:40;98506.38;;;19.25
49557;BMP280;35462;45.048;7.666;2023-05-10T20:41:44;98528.06;;;19.08
49557;BMP280;35462;45.048;7.666;2023-05-10T20:56:49;98525.50;;;18.99
49557;BMP280;35462;45.048;7.666;2023-05-10T21:11:53;98525.78;;;19.01
49557;BMP280;35462;45.048;7.666;2023-05-10T21:26:57;98511.78;;;18.97
49557;BMP280;35462;45.048;7.666;2023-05-10T21:42:02;98506.41;;;18.97
49557;BMP280;35462;45.048;7.666;2023-05-10T21:57:06;98516.59;;;18.93
49557;BMP280;35462;45.048;7.666;2023-05-10T22:12:11;98517.09;;;18.77
49557;BMP280;35462;45.048;7.666;2023-05-10T22:27:15;98499.41;;;18.70
49557;BMP280;35462;45.048;7.666;2023-05-10T22:42:19;98490.72;;;18.61
49557;BMP280;35462;45.048;7.666;2023-05-10T22:57:23;98483.88;;;18.45
49557;BMP280;35462;45.048;7.666;2023-05-10T23:12:28;98490.53;;;18.35
49557;BMP280;35462;45.048;7.666;2023-05-10T23:27:33;98482.13;;;18.28
49557;BMP280;35462;45.048;7.666;2023-05-10T23:42:37;98486.63;;;18.22
49557;BMP280;35462;45.048;7.666;2023-05-10T23:57:42;98454.72;;;18.10
